Time;durP1;ratioP1;P1;durP2;ratioP2;P2;SDS_P1;SDS_P2;PMS_P1;PMS_P2;Temp;Humidity;BMP_temperature;BMP_pressure;BME280_temperature;BME280_humidity;BME280_pressure;Samples;Min_cycle;Max_cycle;Signal;HPM_P1;HPM_P2
2022/06/10 00:01:18;;;;;;;3.72;1.10;;;13.10;98.60;;;;;;6228932;28;20417;-83
2022/06/10 00:04:19;;;;;;;1.80;1.42;;;13.00;98.60;;;;;;6229351;28;20042;-84
2022/06/10 00:07:21;;;;;;;8.68;2.63;;;13.00;98.70;;;;;;6232614;28;20042;-84
2022/06/10 00:10:27;;;;;;;3.33;1.27;;;13.00;98.70;;;;;;6229316;28;20053;-83
2022/06/10 00:13:33;;;;;;;1.90;1.00;;;13.00;98.70;;;;;;6226900;28;20060;-83
2022/06/10 00:16:35;;;;;;;5.03;1.13;;;13.00;98.60;;;;;;6226069;28;20053;-83
2022/06/10 00:19:37;;;;;;;2.85;1.05;;;13.00;98.70;;;;;;6226395;28;20057;-83
2022/06/10 00:22:39;;;;;;;3.75;0.85;;;13.00;98.60;;;;;;6213064;28;20061;-83
2022/06/10 00:25:42;;;;;;;3.83;1.52;;;13.10;98.60;;;;;;6227012;28;20046;-83
2022/06/10 00:28:45;;;;;;;2.30;1.35;;;13.00;98.60;;;;;;6225762;28;20050;-83
2022/06/10 00:31:47;;;;;;;4.72;1.33;;;12.90;98.60;;;;;;6226137;28;20512;-83
2022/06/10 00:34:49;;;;;;;2.92;1.60;;;12.90;98.50;;;;;;6226532;28;20054;-83
2022/06/10 00:37:51;;;;;;;2.25;1.10;;;12.90;98.70;;;;;;6201218;28;20147;-83
2022/06/10 00:40:55;;;;;;;2.88;1.65;;;12.90;98.70;;;;;;6201254;28;20510;-83
2022/06/10 00:43:58;;;;;;;2.58;1.08;;;12.80;98.60;;;;;;6201816;28;20409;-82
2022/06/10 00:47:01;;;;;;;3.58;1.23;;;12.80;98.60;;;;;;6201791;28;20046;-83
2022/06/10 00:50:18;;;;;;;5.70;1.00;;;12.80;98.60;;;;;;6201293;28;20061;-84
2022/06/10 00:53:24;;;;;;;2.63;1.10;;;12.80;98.70;;;;;;6201519;28;20046;-83
2022/06/10 00:56:29;;;;;;;1.55;0.90;;;12.60;98.70;;;;;;6203419;28;20064;-83
2022/06/10 00:59:36;;;;;;;3.72;1.95;;;12.70;98.70;;;;;;6225869;28;20057;-84
2022/06/10 01:02:39;;;;;;;2.57;1.20;;;12.70;98.60;;;;;;6225481;28;20180;-83
2022/06/10 01:05:40;;;;;;;2.40;1.17;;;12.60;98.60;;;;;;6225269;28;20049;-82
2022/06/10 01:08:43;;;;;;;5.95;1.33;;;12.60;98.60;;;;;;6225452;28;20080;-82
2022/06/10 01:12:11;;;;;;;4.80;1.55;;;12.60;98.70;;;;;;6225533;28;20056;-82
2022/06/10 01:15:32;;;;;;;5.70;1.20;;;12.60;98.70;;;;;;6226073;28;20045;-82
2022/06/10 01:18:46;;;;;;;3.75;1.95;;;12.50;98.70;;;;;;6224552;28;20053;-82
2022/06/10 01:22:26;;;;;;;4.57;1.55;;;12.60;98.80;;;;;;6226067;28;20072;-82
2022/06/10 01:25:54;;;;;;;3.50;1.58;;;12.50;98.80;;;;;;6225639;28;20498;-82
2022/06/10 01:29:18;;;;;;;5.53;1.30;;;12.40;98.60;;;;;;6220792;28;20046;-82
2022/06/10 01:32:31;;;;;;;2.05;1.35;;;12.40;98.50;;;;;;6225395;28;20042;-82
2022/06/10 01:35:40;;;;;;;3.45;1.27;;;12.40;98.60;;;;;;6240605;28;20053;-83
2022/06/10 01:38:47;;;;;;;6.25;1.48;;;12.40;98.60;;;;;;6229979;28;20140;-82
2022/06/10 01:41:56;;;;;;;4.90;1.67;;;12.30;98.60;;;;;;6230425;28;20053;-83
2022/06/10 01:45:07;;;;;;;9.40;1.88;;;12.30;98.60;;;;;;6229261;28;20049;-83
2022/06/10 01:48:16;;;;;;;2.90;1.63;;;12.30;98.70;;;;;;6230317;28;20052;-83
2022/06/10 01:51:24;;;;;;;5.57;1.58;;;12.30;98.80;;;;;;6230575;28;20127;-83
2022/06/10 01:54:31;;;;;;;;;;;12.30;98.80;;;;;;6229191;28;20046;-82
2022/06/10 01:57:36;;;;;;;4.68;1.42;;;12.30;98.90;;;;;;6228785;28;19922;-82
2022/06/10 02:00:43;;;;;;;3.60;2.08;;;12.30;98.90;;;;;;6228072;28;20072;-83
2022/06/10 02:03:52;;;;;;;9.05;2.03;;;12.40;99.00;;;;;;6228586;28;20129;-82
2022/06/10 02:06:58;;;;;;;7.28;1.83;;;12.40;99.10;;;;;;6228359;28;20259;-82
2022/06/10 02:10:06;;;;;;;3.13;1.60;;;12.40;99.10;;;;;;6228530;28;20529;-83
2022/06/10 02:13:14;;;;;;;2.75;1.77;;;12.30;99.10;;;;;;6228965;28;20052;-83
2022/06/10 02:16:21;;;;;;;2.35;1.50;;;12.30;99.10;;;;;;6226963;28;20417;-83
2022/06/10 02:19:27;;;;;;;2.72;1.25;;;12.40;99.20;;;;;;6225523;28;20668;-83
2022/06/10 02:22:35;;;;;;;5.38;1.60;;;12.30;99.10;;;;;;6227692;28;20054;-83
2022/06/10 02:25:40;;;;;;;5.72;1.95;;;12.20;99.20;;;;;;6227411;28;20042;-83
2022/06/10 02:28:51;;;;;;;2.65;1.33;;;12.30;99.40;;;;;;6225981;28;20042;-83
2022/06/10 02:31:57;;;;;;;5.55;2.00;;;12.20;99.40;;;;;;6226065;28;20050;-83
2022/06/10 02:35:01;;;;;;;3.25;1.45;;;12.20;99.50;;;;;;6226185;28;20049;-82
2022/06/10 02:38:12;;;;;;;4.15;1.35;;;12.20;99.50;;;;;;6226009;28;20097;-83
2022/06/10 02:41:26;;;;;;;3.05;1.45;;;12.10;99.40;;;;;;6225756;28;20466;-82
2022/06/10 02:44:36;;;;;;;4.10;1.55;;;12.10;99.30;;;;;;6225370;28;20048;-83
2022/06/10 02:47:47;;;;;;;9.30;1.95;;;12.10;99.40;;;;;;6226085;28;20038;-82
2022/06/10 02:50:50;;;;;;;8.68;2.03;;;12.00;99.40;;;;;;6225516;28;20509;-83
2022/06/10 02:53:52;;;;;;;3.20;1.30;;;12.00;99.40;;;;;;6225724;28;20121;-82
2022/06/10 02:56:54;;;;;;;4.50;1.88;;;12.00;99.50;;;;;;6226531;28;20049;-82
2022/06/10 03:03:22;;;;;;;3.30;1.88;;;11.90;99.50;;;;;;6230629;28;20121;-83
2022/06/10 03:06:33;;;;;;;5.50;1.85;;;11.90;99.50;;;;;;6229727;28;20049;-83
2022/06/10 03:09:47;;;;;;;2.83;1.90;;;11.80;99.60;;;;;;6229386;28;20056;-83
2022/06/10 03:13:02;;;;;;;11.85;1.88;;;11.80;99.70;;;;;;6230153;28;20046;-82
2022/06/10 03:16:19;;;;;;;5.90;2.35;;;11.80;99.60;;;;;;6228971;28;20442;-83
2022/06/10 03:19:35;;;;;;;6.35;1.92;;;11.80;99.60;;;;;;6228950;28;20060;-83
2022/06/10 03:22:50;;;;;;;3.00;1.55;;;11.90;99.70;;;;;;6228721;28;20050;-83
2022/06/10 03:25:54;;;;;;;5.00;2.75;;;11.90;99.60;;;;;;6228885;28;20501;-82
2022/06/10 03:29:02;;;;;;;9.13;2.03;;;12.00;99.70;;;;;;6228738;28;20049;-82
2022/06/10 03:32:11;;;;;;;5.38;1.83;;;12.00;99.90;;;;;;6229556;28;20078;-84
2022/06/10 03:35:19;;;;;;;4.70;1.77;;;12.00;99.90;;;;;;6230079;28;20045;-83
2022/06/10 03:38:22;;;;;;;5.43;1.80;;;12.10;99.90;;;;;;6229591;28;20053;-83
2022/06/10 07:20:52;;;;;;;3.90;0.93;;;39.90;29.20;;;;;;6220830;28;20034;-86
2022/06/10 07:24:05;;;;;;;2.05;0.65;;;40.10;29.20;;;;;;6204066;28;20157;-89
2022/06/10 07:27:06;;;;;;;6.53;0.95;;;40.50;29.20;;;;;;6202100;28;20111;-88
2022/06/10 07:30:09;;;;;;;4.97;0.60;;;40.70;28.80;;;;;;6186411;28;20058;-84
2022/06/10 07:33:13;;;;;;;5.10;1.05;;;40.90;28.80;;;;;;6188137;28;20071;-86
2022/06/10 07:36:16;;;;;;;3.72;0.65;;;40.90;28.50;;;;;;6192050;28;20051;-85
2022/06/10 07:39:31;;;;;;;3.13;0.90;;;41.20;28.40;;;;;;6185608;28;20057;-87
2022/06/10 07:42:34;;;;;;;3.88;1.13;;;40.80;28.00;;;;;;6200404;28;20136;-86
2022/06/10 07:45:36;;;;;;;7.63;1.20;;;38.90;29.40;;;;;;6208187;28;20042;-87
2022/06/10 07:48:38;;;;;;;7.95;0.80;;;36.10;31.30;;;;;;6208641;28;20056;-85
2022/06/10 07:51:41;;;;;;;1.95;0.68;;;33.30;34.10;;;;;;6209849;28;20046;-84
2022/06/10 07:54:43;;;;;;;6.10;0.85;;;31.30;36.80;;;;;;6209123;28;20057;-88
2022/06/10 07:57:45;;;;;;;7.78;0.85;;;30.00;38.50;;;;;;6215385;28;20140;-85
2022/06/10 08:00:48;;;;;;;7.78;1.00;;;28.80;40.50;;;;;;6208773;28;20054;-85
2022/06/10 08:03:50;;;;;;;7.38;1.33;;;27.90;42.40;;;;;;6206082;28;20046;-85
2022/06/10 08:06:53;;;;;;;4.38;0.82;;;27.30;43.30;;;;;;6208973;28;20047;-87
2022/06/10 08:09:54;;;;;;;2.88;0.73;;;26.80;44.60;;;;;;6205030;28;20069;-86
2022/06/10 08:12:57;;;;;;;3.15;0.80;;;26.60;45.30;;;;;;6195499;28;20050;-85
2022/06/10 08:15:58;;;;;;;4.32;0.82;;;26.50;46.10;;;;;;6206266;28;20528;-84
2022/06/10 08:19:05;;;;;;;3.40;0.90;;;26.30;46.60;;;;;;6208118;28;20058;-84
2022/06/10 08:25:29;;;;;;;5.70;1.20;;;26.10;47.70;;;;;;6206796;28;20058;-85
2022/06/10 08:28:30;;;;;;;5.47;0.82;;;26.20;48.60;;;;;;6208390;28;20046;-86
2022/06/10 08:31:32;;;;;;;1.52;0.60;;;26.40;47.80;;;;;;6209069;28;20056;-84
2022/06/10 08:34:36;;;;;;;1.60;0.88;;;26.30;47.60;;;;;;6209261;28;20050;-84
2022/06/10 08:37:39;;;;;;;7.72;0.63;;;26.30;46.80;;;;;;6207515;28;20050;-84
2022/06/10 08:40:47;;;;;;;6.03;0.75;;;26.40;47.60;;;;;;6207795;28;20044;-84
2022/06/10 08:44:08;;;;;;;4.18;0.93;;;26.50;47.30;;;;;;6207756;28;20512;-85
2022/06/10 08:47:32;;;;;;;4.45;0.50;;;26.40;47.50;;;;;;6207794;28;20056;-85
2022/06/10 08:50:50;;;;;;;2.50;0.50;;;26.50;48.00;;;;;;6207515;28;20050;-86
2022/06/10 08:54:20;;;;;;;3.35;0.50;;;26.70;48.10;;;;;;6207255;28;20144;-84
2022/06/10 08:57:30;;;;;;;6.28;0.70;;;26.80;46.80;;;;;;6205440;28;20043;-85
2022/06/10 09:00:37;;;;;;;2.40;0.30;;;26.90;44.50;;;;;;6207275;28;20042;-86
2022/06/10 09:03:43;;;;;;;3.03;0.55;;;27.30;44.60;;;;;;6207347;28;20057;-86
2022/06/10 09:06:51;;;;;;;1.48;0.40;;;27.40;44.60;;;;;;6208278;28;20106;-85
2022/06/10 09:09:55;;;;;;;2.15;0.98;;;27.40;44.20;;;;;;6208111;28;20065;-86
2022/06/10 09:13:20;;;;;;;2.97;0.45;;;27.60;43.50;;;;;;6207945;28;20052;-86
2022/06/10 09:16:28;;;;;;;3.38;0.77;;;27.70;41.90;;;;;;6207433;28;20053;-86
2022/06/10 09:19:33;;;;;;;;;;;27.90;41.30;;;;;;6215760;28;20054;-83
2022/06/10 09:22:40;;;;;;;1.60;0.80;;;28.00;42.90;;;;;;6207861;28;19921;-85
2022/06/10 09:25:45;;;;;;;4.90;0.68;;;28.00;42.90;;;;;;6207734;28;20056;-83
2022/06/10 09:28:47;;;;;;;4.35;0.80;;;28.10;43.10;;;;;;6208084;28;20138;-85
2022/06/10 09:31:56;;;;;;;4.57;0.95;;;28.20;43.20;;;;;;6207691;28;20054;-85
2022/06/10 09:35:06;;;;;;;1.70;0.30;;;28.30;43.20;;;;;;6208230;28;20058;-86
2022/06/10 09:38:14;;;;;;;3.08;0.68;;;28.30;42.10;;;;;;6208070;28;20072;-83
2022/06/10 09:41:29;;;;;;;3.53;0.50;;;28.40;42.90;;;;;;6229889;23;20045;-81
2022/06/10 09:44:37;;;;;;;2.22;0.75;;;28.60;42.10;;;;;;6248839;28;20060;-81
2022/06/10 09:47:55;;;;;;;4.95;0.32;;;28.70;40.70;;;;;;6249271;28;20045;-82
2022/06/10 09:51:03;;;;;;;3.72;0.65;;;28.60;40.90;;;;;;6242782;28;20060;-83
2022/06/10 09:54:26;;;;;;;2.72;0.50;;;28.70;38.90;;;;;;6225387;28;20054;-81
2022/06/10 09:57:54;;;;;;;5.72;0.73;;;28.70;38.80;;;;;;6225811;28;20042;-84
2022/06/10 10:01:03;;;;;;;4.85;0.77;;;28.80;38.60;;;;;;6227132;28;20042;-83
2022/06/10 10:04:35;;;;;;;6.35;0.75;;;28.90;39.10;;;;;;6225057;28;20068;-82
2022/06/10 10:07:44;;;;;;;7.55;1.05;;;29.10;38.90;;;;;;6231287;28;20499;-83
2022/06/10 10:10:51;;;;;;;2.45;0.57;;;29.80;38.30;;;;;;6230403;28;20053;-83
2022/06/10 10:14:04;;;;;;;3.30;0.40;;;30.80;36.90;;;;;;6230200;28;20050;-83
2022/06/10 10:17:27;;;;;;;2.70;0.40;;;31.70;35.60;;;;;;6230837;28;20052;-83
2022/06/10 10:20:40;;;;;;;2.55;0.80;;;31.90;35.00;;;;;;6230830;28;20061;-81
2022/06/10 10:23:46;;;;;;;3.60;0.60;;;31.60;35.00;;;;;;6230046;28;20054;-84
2022/06/10 10:26:51;;;;;;;4.82;0.65;;;31.00;36.20;;;;;;6229123;28;20132;-83
2022/06/10 10:30:00;;;;;;;3.50;0.80;;;30.40;36.70;;;;;;6228482;28;20073;-83
2022/06/10 10:33:03;;;;;;;3.53;0.88;;;30.00;36.50;;;;;;6230223;28;20127;-82
2022/06/10 10:36:16;;;;;;;4.35;0.98;;;29.80;36.90;;;;;;6231739;28;20042;-83
2022/06/10 10:39:27;;;;;;;5.60;1.20;;;29.60;37.00;;;;;;6230246;28;20058;-82
2022/06/10 10:42:42;;;;;;;3.35;1.25;;;29.60;37.50;;;;;;6229676;28;20050;-82
2022/06/10 10:45:56;;;;;;;5.38;1.63;;;29.50;37.20;;;;;;6229954;28;20056;-84
2022/06/10 10:49:01;;;;;;;4.38;0.82;;;29.70;37.30;;;;;;6230819;28;20060;-83
2022/06/10 10:52:09;;;;;;;4.80;0.82;;;30.00;37.20;;;;;;6230255;28;20042;-83
2022/06/10 10:55:21;;;;;;;;;;;30.30;37.00;;;;;;6230689;28;20053;-83
2022/06/10 10:58:28;;;;;;;5.68;0.75;;;30.60;37.10;;;;;;6227702;28;19936;-84
2022/06/10 11:01:46;;;;;;;3.40;0.63;;;30.80;36.70;;;;;;6227698;28;20052;-83
2022/06/10 11:04:48;;;;;;;8.32;0.85;;;31.00;35.90;;;;;;6227937;28;20046;-84
2022/06/10 11:08:13;;;;;;;21.08;1.23;;;31.10;35.20;;;;;;6227251;28;20061;-83
2022/06/10 11:11:19;;;;;;;3.47;0.77;;;30.90;35.90;;;;;;6216086;28;20050;-82
2022/06/10 11:14:25;;;;;;;4.32;0.60;;;31.10;36.10;;;;;;6228683;28;20060;-82
2022/06/10 11:17:28;;;;;;;5.07;1.35;;;31.20;36.20;;;;;;6228476;28;20051;-82
2022/06/10 11:20:32;;;;;;;3.03;0.63;;;31.30;35.80;;;;;;6227987;28;20537;-83
2022/06/10 11:23:34;;;;;;;1.63;0.40;;;31.40;35.90;;;;;;6229394;28;20046;-85
2022/06/10 11:26:49;;;;;;;1.50;0.75;;;31.60;35.40;;;;;;6229158;28;20038;-83
2022/06/10 11:30:04;;;;;;;7.07;0.85;;;31.90;35.10;;;;;;6202874;28;20050;-83
2022/06/10 11:33:20;;;;;;;2.13;0.40;;;32.30;34.90;;;;;;6203873;28;20520;-83
2022/06/10 11:36:27;;;;;;;3.97;0.60;;;32.40;34.40;;;;;;6204779;28;20070;-84
2022/06/10 11:39:33;;;;;;;5.05;1.00;;;32.60;34.40;;;;;;6204167;28;20051;-83
2022/06/10 11:42:42;;;;;;;6.03;0.75;;;32.30;34.40;;;;;;6221399;28;20057;-83
2022/06/10 11:45:50;;;;;;;1.77;0.40;;;32.10;35.00;;;;;;6226961;28;20569;-83
2022/06/10 11:48:59;;;;;;;3.17;0.47;;;32.20;34.40;;;;;;6226900;28;20045;-83
2022/06/10 11:52:07;;;;;;;2.10;0.50;;;32.30;34.40;;;;;;6226596;28;20050;-83
2022/06/10 11:55:14;;;;;;;2.30;0.60;;;32.60;34.70;;;;;;6227956;28;20049;-83
2022/06/10 12:01:47;;;;;;;7.53;0.68;;;33.40;33.70;;;;;;6229263;28;20042;-83
2022/06/10 12:04:59;;;;;;;2.77;0.50;;;33.40;33.50;;;;;;6227755;28;20046;-83
2022/06/10 12:08:14;;;;;;;3.25;0.70;;;33.60;33.20;;;;;;6226646;28;20502;-84
2022/06/10 12:11:26;;;;;;;7.65;1.17;;;33.70;33.00;;;;;;6227781;28;20046;-85
2022/06/10 12:14:32;;;;;;;2.25;0.82;;;33.20;32.80;;;;;;6228620;28;20477;-84
2022/06/10 12:17:39;;;;;;;5.30;0.47;;;32.70;33.70;;;;;;6227887;28;20046;-84
2022/06/10 12:20:46;;;;;;;3.85;0.40;;;32.80;33.40;;;;;;6225676;28;20046;-83
2022/06/10 12:23:48;;;;;;;2.35;0.57;;;33.10;33.20;;;;;;6226493;28;20053;-84
2022/06/10 12:26:56;;;;;;;3.83;0.65;;;33.00;33.40;;;;;;6226666;28;20068;-83
2022/06/10 12:30:03;;;;;;;6.55;0.88;;;33.00;33.30;;;;;;6225029;28;20046;-82
2022/06/10 12:33:12;;;;;;;2.72;0.52;;;33.20;33.10;;;;;;6227093;28;20528;-84
2022/06/10 12:36:29;;;;;;;4.20;0.80;;;33.30;32.70;;;;;;6227043;28;20052;-82
2022/06/10 12:39:38;;;;;;;4.82;0.77;;;33.50;33.00;;;;;;6226029;28;20497;-83
2022/06/10 12:42:45;;;;;;;3.72;0.60;;;33.70;32.90;;;;;;6226418;28;20041;-82
2022/06/10 12:45:49;;;;;;;3.13;0.47;;;34.00;32.50;;;;;;6225734;28;20632;-83
2022/06/10 12:48:51;;;;;;;5.40;0.90;;;34.30;32.50;;;;;;6226597;28;20056;-83
2022/06/10 12:52:16;;;;;;;4.03;0.50;;;34.50;32.30;;;;;;6224875;28;20417;-83
2022/06/10 12:55:25;;;;;;;3.10;0.60;;;34.70;31.50;;;;;;6226374;28;20050;-84
2022/06/10 12:58:45;;;;;;;2.08;0.32;;;34.70;32.10;;;;;;6228013;28;20064;-84
2022/06/10 13:01:48;;;;;;;6.18;0.75;;;34.70;31.50;;;;;;6226201;28;20042;-84
2022/06/10 13:05:03;;;;;;;5.05;0.63;;;34.80;31.70;;;;;;6227500;28;20052;-83
2022/06/10 13:08:50;;;;;;;1.85;0.50;;;34.80;31.00;;;;;;6229503;28;20050;-83
2022/06/10 13:11:54;;;;;;;3.72;0.30;;;34.80;31.40;;;;;;6219947;28;20053;-85
2022/06/10 13:15:23;;;;;;;7.32;1.15;;;34.90;31.00;;;;;;6227132;28;20054;-82
2022/06/10 13:18:31;;;;;;;7.05;0.40;;;34.90;30.90;;;;;;6230870;28;20049;-82
2022/06/10 13:21:35;;;;;;;7.25;0.70;;;34.70;31.70;;;;;;6230000;28;20524;-83
2022/06/10 13:24:38;;;;;;;5.60;0.70;;;34.60;31.00;;;;;;6230215;28;20050;-82
2022/06/10 13:27:44;;;;;;;4.97;0.85;;;34.60;30.80;;;;;;6231014;28;20046;-82
2022/06/10 13:30:47;;;;;;;4.03;0.57;;;34.50;30.90;;;;;;6229219;28;20052;-82
2022/06/10 13:34:00;;;;;;;2.30;0.60;;;34.60;30.60;;;;;;6228743;28;20038;-82
2022/06/10 13:37:13;;;;;;;4.88;0.50;;;34.60;30.50;;;;;;6228345;28;20048;-83
2022/06/10 13:40:23;;;;;;;8.10;0.65;;;34.30;31.20;;;;;;6223784;28;20041;-82
2022/06/10 13:43:30;;;;;;;8.40;0.98;;;33.90;31.10;;;;;;6225006;28;20049;-82
2022/06/10 13:46:33;;;;;;;2.92;0.32;;;34.00;30.60;;;;;;6224209;28;20056;-82
2022/06/10 13:49:46;;;;;;;3.10;0.40;;;34.10;30.60;;;;;;6223983;28;20211;-82
2022/06/10 13:52:50;;;;;;;1.80;0.65;;;33.80;30.40;;;;;;6223739;28;20429;-82
2022/06/10 13:55:56;;;;;;;4.10;0.93;;;33.30;31.20;;;;;;6224841;28;20054;-82
2022/06/10 13:58:59;;;;;;;3.40;0.52;;;32.70;31.70;;;;;;6224214;28;20468;-83
2022/06/10 14:02:03;;;;;;;4.10;0.35;;;32.30;32.00;;;;;;6224154;28;20069;-81
2022/06/10 14:05:05;;;;;;;1.23;0.30;;;32.30;32.30;;;;;;6225401;28;20046;-82
2022/06/10 14:08:16;;;;;;;1.65;0.52;;;32.30;32.40;;;;;;6224765;28;20394;-82
2022/06/10 14:11:25;;;;;;;9.23;0.68;;;32.50;32.30;;;;;;6225300;28;20433;-81
2022/06/10 14:14:27;;;;;;;3.05;0.65;;;32.70;32.60;;;;;;6223548;28;20042;-83
2022/06/10 14:17:29;;;;;;;2.47;0.93;;;32.90;32.30;;;;;;6226217;28;20049;-82
2022/06/10 14:20:34;;;;;;;3.20;0.40;;;33.10;32.50;;;;;;6228351;28;20424;-82
2022/06/10 14:23:36;;;;;;;3.30;0.50;;;33.40;31.60;;;;;;6226416;28;20057;-84
2022/06/10 14:26:41;;;;;;;4.70;0.47;;;33.30;31.40;;;;;;6223925;28;20416;-83
2022/06/10 14:29:45;;;;;;;3.78;0.50;;;33.30;31.70;;;;;;6223213;28;20064;-82
2022/06/10 14:32:53;;;;;;;3.33;0.57;;;33.30;31.80;;;;;;6222230;28;20204;-80
2022/06/10 14:36:12;;;;;;;2.42;0.60;;;33.20;32.00;;;;;;6223975;28;20069;-81
2022/06/10 14:39:16;;;;;;;2.83;0.63;;;33.20;32.20;;;;;;6224198;28;20053;-81
2022/06/10 14:42:26;;;;;;;4.72;0.80;;;33.40;32.00;;;;;;6223100;28;20053;-81
2022/06/10 14:45:33;;;;;;;2.75;0.45;;;33.50;31.70;;;;;;6223800;28;20046;-80
2022/06/10 14:48:37;;;;;;;5.55;0.93;;;33.60;31.80;;;;;;6222122;28;20093;-80
2022/06/10 14:51:42;;;;;;;3.67;0.63;;;33.80;31.50;;;;;;6224059;28;20050;-80
2022/06/10 14:54:44;;;;;;;3.58;0.73;;;33.60;31.80;;;;;;6227785;28;20049;-81
2022/06/10 14:57:53;;;;;;;5.40;0.70;;;33.80;32.00;;;;;;6226972;28;20049;-82
2022/06/10 15:00:55;;;;;;;7.28;0.95;;;34.00;32.10;;;;;;6227445;28;20054;-80
2022/06/10 15:03:57;;;;;;;5.68;0.65;;;34.30;31.50;;;;;;6227361;28;20140;-80
2022/06/10 15:07:01;;;;;;;4.43;0.60;;;34.40;30.80;;;;;;6229023;28;20054;-80
2022/06/10 15:10:10;;;;;;;5.68;0.85;;;34.50;30.80;;;;;;6227711;28;20053;-80
2022/06/10 15:13:17;;;;;;;4.80;0.70;;;34.50;30.50;;;;;;6227796;28;20041;-81
2022/06/10 15:16:20;;;;;;;6.00;0.85;;;34.40;30.70;;;;;;6227751;28;20046;-80
2022/06/10 15:19:22;;;;;;;2.55;0.60;;;34.20;31.00;;;;;;6227983;28;20065;-81
2022/06/10 15:22:28;;;;;;;1.35;0.20;;;34.00;31.20;;;;;;6226778;28;20425;-81
2022/06/10 15:25:38;;;;;;;3.17;0.68;;;33.80;31.40;;;;;;6227302;28;20053;-80
2022/06/10 15:28:42;;;;;;;2.15;0.40;;;33.90;31.30;;;;;;6227993;28;20184;-81
2022/06/10 15:31:44;;;;;;;3.03;0.60;;;33.90;31.00;;;;;;6225959;28;20628;-81
2022/06/10 21:10:24;;;;;;;2.85;1.10;;;18.30;92.80;;;;;;6251101;28;20128;-84
2022/06/10 21:13:26;;;;;;;4.53;1.85;;;18.20;93.10;;;;;;6246046;28;20124;-84
2022/06/10 21:16:32;;;;;;;7.30;1.58;;;18.20;93.30;;;;;;6252740;28;20401;-83
2022/06/10 21:19:38;;;;;;;9.45;1.50;;;18.20;93.30;;;;;;6259690;28;20054;-82
2022/06/10 21:22:40;;;;;;;3.20;1.33;;;18.20;93.40;;;;;;6253581;28;20069;-83
2022/06/10 21:25:43;;;;;;;7.00;1.65;;;18.10;93.40;;;;;;6250380;28;20045;-83
2022/06/10 21:28:45;;;;;;;5.15;1.13;;;18.10;93.60;;;;;;6250179;28;20050;-84
2022/06/10 21:31:50;;;;;;;3.92;1.20;;;18.00;93.50;;;;;;6249279;28;20048;-83
2022/06/10 21:34:53;;;;;;;5.55;1.48;;;18.00;93.40;;;;;;6249280;28;20638;-84
2022/06/10 21:37:55;;;;;;;3.80;1.08;;;18.00;93.40;;;;;;6247629;28;20049;-83
2022/06/10 21:40:57;;;;;;;5.15;1.35;;;18.00;93.40;;;;;;6246689;28;20041;-83
2022/06/10 21:44:14;;;;;;;2.30;1.10;;;18.00;93.40;;;;;;6248404;28;20142;-85
2022/06/10 21:47:19;;;;;;;3.45;1.38;;;17.90;93.40;;;;;;6249204;28;20068;-85
2022/06/10 21:50:25;;;;;;;4.32;1.13;;;17.90;93.20;;;;;;6221470;28;20068;-84
2022/06/10 21:53:31;;;;;;;6.03;1.63;;;17.90;93.20;;;;;;6249511;28;20060;-84
2022/06/10 21:56:36;;;;;;;6.78;1.20;;;17.90;93.20;;;;;;6249470;28;20493;-82
2022/06/10 21:59:37;;;;;;;6.10;1.35;;;17.90;93.20;;;;;;6250159;28;20056;-85
2022/06/10 22:02:39;;;;;;;1.58;0.98;;;17.90;93.30;;;;;;6249203;28;20055;-85
2022/06/10 22:05:42;;;;;;;2.33;1.40;;;17.90;93.30;;;;;;6249912;28;20049;-85
2022/06/10 22:08:45;;;;;;;4.70;1.40;;;17.80;93.20;;;;;;6244142;28;20076;-84
2022/06/10 22:11:48;;;;;;;2.58;1.35;;;17.80;93.40;;;;;;6239292;28;20128;-83
2022/06/10 22:14:50;;;;;;;4.55;1.67;;;17.80;93.50;;;;;;6247394;28;20061;-84
2022/06/10 22:17:56;;;;;;;2.15;1.30;;;17.70;93.50;;;;;;6246753;28;20056;-84
2022/06/10 22:20:59;;;;;;;4.13;1.33;;;17.60;93.60;;;;;;6247168;28;20049;-82
2022/06/10 22:24:01;;;;;;;6.45;1.50;;;17.60;93.80;;;;;;6247657;28;20519;-84
2022/06/10 22:27:06;;;;;;;3.45;1.30;;;17.50;93.90;;;;;;6248238;28;20056;-83
2022/06/10 22:30:08;;;;;;;3.33;1.35;;;17.50;94.00;;;;;;6249207;28;20092;-85
2022/06/10 22:33:20;;;;;;;3.45;1.50;;;17.50;94.20;;;;;;6249238;28;20049;-84
2022/06/10 22:36:24;;;;;;;2.85;1.42;;;17.50;94.30;;;;;;6249776;28;20074;-84
2022/06/10 22:39:26;;;;;;;3.50;1.58;;;17.40;94.20;;;;;;6242279;28;20128;-85
2022/06/10 22:42:28;;;;;;;6.10;1.42;;;17.50;94.20;;;;;;6248174;28;20190;-84
2022/06/10 22:45:31;;;;;;;6.25;2.17;;;17.40;94.40;;;;;;6248283;28;20051;-84
2022/06/10 22:48:34;;;;;;;5.88;1.65;;;17.30;94.30;;;;;;6246657;28;20049;-84
2022/06/10 22:51:40;;;;;;;2.80;1.05;;;17.20;94.40;;;;;;6248584;28;20138;-85
2022/06/10 22:54:43;;;;;;;2.00;1.40;;;17.10;94.50;;;;;;6248675;28;20050;-85
2022/06/10 22:57:47;;;;;;;2.85;1.30;;;17.00;94.60;;;;;;6247923;28;20076;-84
2022/06/10 23:00:51;;;;;;;2.17;1.50;;;17.00;94.70;;;;;;6248506;28;20049;-84
2022/06/10 23:03:55;;;;;;;5.53;1.67;;;16.90;95.00;;;;;;6248431;28;20420;-84
2022/06/10 23:06:58;;;;;;;4.20;1.45;;;16.80;95.00;;;;;;6248984;28;20052;-86
2022/06/10 23:13:24;;;;;;;6.90;1.90;;;16.60;95.10;;;;;;6241091;28;20037;-85
2022/06/10 23:16:31;;;;;;;4.72;2.08;;;16.50;95.00;;;;;;6253374;28;20041;-84
2022/06/10 23:19:41;;;;;;;6.63;1.70;;;16.50;95.00;;;;;;6253558;28;20041;-85
2022/06/10 23:22:44;;;;;;;7.03;1.35;;;16.50;95.20;;;;;;6253384;28;20059;-85
2022/06/10 23:25:47;;;;;;;2.60;1.27;;;16.40;95.20;;;;;;6253254;28;20392;-85
2022/06/10 23:28:49;;;;;;;4.70;1.50;;;16.30;95.30;;;;;;6253700;28;20124;-84
2022/06/10 23:31:52;;;;;;;4.60;1.27;;;16.30;95.50;;;;;;6254251;28;20505;-84
2022/06/10 23:34:56;;;;;;;8.02;1.67;;;16.20;95.70;;;;;;6253705;28;20060;-84
2022/06/10 23:38:04;;;;;;;3.95;1.85;;;16.10;95.80;;;;;;6253353;28;20049;-85
2022/06/10 23:41:05;;;;;;;3.53;1.40;;;16.10;95.90;;;;;;6252709;28;20046;-83
2022/06/10 23:44:07;;;;;;;4.10;1.45;;;16.00;95.90;;;;;;6253072;28;20037;-83
2022/06/10 23:50:35;;;;;;;2.47;1.63;;;15.80;96.10;;;;;;6252356;28;20053;-84
2022/06/10 23:53:39;;;;;;;4.57;1.95;;;15.80;96.30;;;;;;6252518;28;20516;-84
2022/06/10 23:56:43;;;;;;;4.13;1.50;;;15.80;96.20;;;;;;6252806;28;20045;-86
2022/06/10 23:59:44;;;;;;;2.90;1.60;;;15.80;96.30;;;;;;6252803;28;20072;-85
